sensor_id;sensor_type;location;lat;lon;timestamp;temperature;humidity
51733;DHT22;39139;53.144;6.244;2023-03-05T00:01:19;3.10;99.90
51733;DHT22;39139;53.144;6.244;2023-03-05T00:03:47;2.90;99.90
51733;DHT22;39139;53.144;6.244;2023-03-05T00:06:13;2.90;99.90
51733;DHT22;39139;53.144;6.244;2023-03-05T00:08:39;2.80;99.90
51733;DHT22;39139;53.144;6.244;2023-03-05T00:11:08;2.80;99.90
51733;DHT22;39139;53.144;6.244;2023-03-05T00:13:34;2.70;99.90
51733;DHT22;39139;53.144;6.244;2023-03-05T00:16:18;2.70;99.90
51733;DHT22;39139;53.144;6.244;2023-03-05T00:18:45;2.70;99.90
51733;DHT22;39139;53.144;6.244;2023-03-05T00:21:21;2.70;99.90
51733;DHT22;39139;53.144;6.244;2023-03-05T00:23:48;2.70;99.90
51733;DHT22;39139;53.144;6.244;2023-03-05T00:26:16;2.70;99.90
51733;DHT22;39139;53.144;6.244;2023-03-05T00:28:42;2.70;99.90
51733;DHT22;39139;53.144;6.244;2023-03-05T00:31:07;2.70;99.90
51733;DHT22;39139;53.144;6.244;2023-03-05T00:33:33;2.70;99.90
51733;DHT22;39139;53.144;6.244;2023-03-05T00:35:59;2.70;99.90
51733;DHT22;39139;53.144;6.244;2023-03-05T00:38:29;2.80;99.90
51733;DHT22;39139;53.144;6.244;2023-03-05T00:40:55;2.80;99.90
51733;DHT22;39139;53.144;6.244;2023-03-05T00:43:20;2.80;99.90
51733;DHT22;39139;53.144;6.244;2023-03-05T00:45:46;2.80;99.90
51733;DHT22;39139;53.144;6.244;2023-03-05T00:48:12;2.80;99.90
51733;DHT22;39139;53.144;6.244;2023-03-05T00:50:37;2.80;99.90
51733;DHT22;39139;53.144;6.244;2023-03-05T00:53:03;2.80;99.90
51733;DHT22;39139;53.144;6.244;2023-03-05T00:55:28;2.80;99.90
51733;DHT22;39139;53.144;6.244;2023-03-05T00:57:54;2.80;99.90
51733;DHT22;39139;53.144;6.244;2023-03-05T01:00:20;2.80;99.90
51733;DHT22;39139;53.144;6.244;2023-03-05T01:02:45;2.80;99.90
51733;DHT22;39139;53.144;6.244;2023-03-05T01:05:12;2.80;99.90
51733;DHT22;39139;53.144;6.244;2023-03-05T01:07:38;2.80;99.90
51733;DHT22;39139;53.144;6.244;2023-03-05T01:10:05;2.90;99.90
51733;DHT22;39139;53.144;6.244;2023-03-05T01:12:31;2.80;99.90
51733;DHT22;39139;53.144;6.244;2023-03-05T01:14:56;2.90;99.90
51733;DHT22;39139;53.144;6.244;2023-03-05T01:17:22;2.90;99.90
51733;DHT22;39139;53.144;6.244;2023-03-05T01:19:48;3.10;99.90
51733;DHT22;39139;53.144;6.244;2023-03-05T01:22:13;2.90;99.90
51733;DHT22;39139;53.144;6.244;2023-03-05T01:24:39;2.90;99.90
51733;DHT22;39139;53.144;6.244;2023-03-05T01:27:04;2.90;99.90
51733;DHT22;39139;53.144;6.244;2023-03-05T01:29:30;2.80;99.90
51733;DHT22;39139;53.144;6.244;2023-03-05T01:31:56;2.70;99.90
51733;DHT22;39139;53.144;6.244;2023-03-05T01:34:21;2.60;99.90
51733;DHT22;39139;53.144;6.244;2023-03-05T01:36:47;2.50;99.90
51733;DHT22;39139;53.144;6.244;2023-03-05T01:39:15;2.50;99.90
51733;DHT22;39139;53.144;6.244;2023-03-05T01:41:41;2.40;99.90
51733;DHT22;39139;53.144;6.244;2023-03-05T01:44:22;2.40;99.90
51733;DHT22;39139;53.144;6.244;2023-03-05T01:46:48;2.40;99.90
51733;DHT22;39139;53.144;6.244;2023-03-05T01:49:26;2.40;99.90
51733;DHT22;39139;53.144;6.244;2023-03-05T01:52:14;2.40;99.90
51733;DHT22;39139;53.144;6.244;2023-03-05T01:54:45;2.40;99.90
51733;DHT22;39139;53.144;6.244;2023-03-05T01:57:36;2.30;99.90
51733;DHT22;39139;53.144;6.244;2023-03-05T02:00:10;2.30;99.90
51733;DHT22;39139;53.144;6.244;2023-03-05T02:02:37;2.30;99.90
51733;DHT22;39139;53.144;6.244;2023-03-05T02:05:18;2.30;99.90
51733;DHT22;39139;53.144;6.244;2023-03-05T02:07:45;2.20;99.90
51733;DHT22;39139;53.144;6.244;2023-03-05T02:10:19;2.20;99.90
51733;DHT22;39139;53.144;6.244;2023-03-05T02:12:47;2.20;99.90
51733;DHT22;39139;53.144;6.244;2023-03-05T02:15:13;2.30;99.90
51733;DHT22;39139;53.144;6.244;2023-03-05T02:17:39;2.30;99.90
51733;DHT22;39139;53.144;6.244;2023-03-05T02:20:25;2.20;99.90
51733;DHT22;39139;53.144;6.244;2023-03-05T02:22:51;2.50;99.90
51733;DHT22;39139;53.144;6.244;2023-03-05T02:30:35;2.30;99.90
51733;DHT22;39139;53.144;6.244;2023-03-05T02:33:02;2.30;99.90
51733;DHT22;39139;53.144;6.244;2023-03-05T02:35:27;2.30;99.90
51733;DHT22;39139;53.144;6.244;2023-03-05T02:37:53;2.30;99.90
51733;DHT22;39139;53.144;6.244;2023-03-05T02:40:19;2.40;99.90
51733;DHT22;39139;53.144;6.244;2023-03-05T02:42:44;2.40;99.90
51733;DHT22;39139;53.144;6.244;2023-03-05T02:45:11;2.40;99.90
51733;DHT22;39139;53.144;6.244;2023-03-05T02:47:37;2.40;99.90
51733;DHT22;39139;53.144;6.244;2023-03-05T02:50:03;2.40;99.90
51733;DHT22;39139;53.144;6.244;2023-03-05T02:52:30;2.40;99.90
51733;DHT22;39139;53.144;6.244;2023-03-05T02:54:56;2.40;99.90
51733;DHT22;39139;53.144;6.244;2023-03-05T02:57:22;2.40;99.90
51733;DHT22;39139;53.144;6.244;2023-03-05T02:59:47;2.40;99.90
51733;DHT22;39139;53.144;6.244;2023-03-05T03:02:13;2.40;99.90
51733;DHT22;39139;53.144;6.244;2023-03-05T03:04:39;2.50;99.90
51733;DHT22;39139;53.144;6.244;2023-03-05T03:07:04;2.40;99.90
51733;DHT22;39139;53.144;6.244;2023-03-05T03:09:32;2.40;99.90
51733;DHT22;39139;53.144;6.244;2023-03-05T03:11:57;2.40;99.90
51733;DHT22;39139;53.144;6.244;2023-03-05T03:14:23;2.40;99.90
51733;DHT22;39139;53.144;6.244;2023-03-05T03:16:49;2.50;99.90
51733;DHT22;39139;53.144;6.244;2023-03-05T03:19:14;2.50;99.90
51733;DHT22;39139;53.144;6.244;2023-03-05T03:21:40;2.40;99.90
51733;DHT22;39139;53.144;6.244;2023-03-05T03:24:06;2.40;99.90
51733;DHT22;39139;53.144;6.244;2023-03-05T03:26:32;2.40;99.90
51733;DHT22;39139;53.144;6.244;2023-03-05T03:28:57;2.40;99.90
51733;DHT22;39139;53.144;6.244;2023-03-05T03:31:23;2.30;99.90
51733;DHT22;39139;53.144;6.244;2023-03-05T03:33:49;2.20;99.90
51733;DHT22;39139;53.144;6.244;2023-03-05T03:36:15;2.20;99.90
51733;DHT22;39139;53.144;6.244;2023-03-05T03:38:41;2.20;99.90
51733;DHT22;39139;53.144;6.244;2023-03-05T03:41:07;2.10;99.90
51733;DHT22;39139;53.144;6.244;2023-03-05T03:43:34;2.10;99.90
51733;DHT22;39139;53.144;6.244;2023-03-05T03:46:00;2.10;99.90
51733;DHT22;39139;53.144;6.244;2023-03-05T03:48:27;2.10;99.90
51733;DHT22;39139;53.144;6.244;2023-03-05T03:50:53;2.10;99.90
51733;DHT22;39139;53.144;6.244;2023-03-05T03:53:18;2.20;99.90
51733;DHT22;39139;53.144;6.244;2023-03-05T03:55:44;2.20;99.90
51733;DHT22;39139;53.144;6.244;2023-03-05T03:58:11;2.20;99.90
51733;DHT22;39139;53.144;6.244;2023-03-05T04:00:37;2.30;99.90
51733;DHT22;39139;53.144;6.244;2023-03-05T04:03:03;2.30;99.90
51733;DHT22;39139;53.144;6.244;2023-03-05T04:05:28;2.30;99.90
51733;DHT22;39139;53.144;6.244;2023-03-05T04:07:54;1.50;99.90
51733;DHT22;39139;53.144;6.244;2023-03-05T04:10:21;2.50;99.90
51733;DHT22;39139;53.144;6.244;2023-03-05T04:12:47;2.50;99.90
51733;DHT22;39139;53.144;6.244;2023-03-05T04:15:13;2.50;99.90
51733;DHT22;39139;53.144;6.244;2023-03-05T04:17:38;2.50;99.90
51733;DHT22;39139;53.144;6.244;2023-03-05T04:20:05;2.50;99.90
51733;DHT22;39139;53.144;6.244;2023-03-05T04:22:33;2.60;99.90
51733;DHT22;39139;53.144;6.244;2023-03-05T04:24:59;2.50;99.90
51733;DHT22;39139;53.144;6.244;2023-03-05T04:27:25;2.50;99.90
51733;DHT22;39139;53.144;6.244;2023-03-05T04:29:50;2.40;99.90
51733;DHT22;39139;53.144;6.244;2023-03-05T04:32:16;2.40;99.90
51733;DHT22;39139;53.144;6.244;2023-03-05T04:34:47;2.40;99.90
51733;DHT22;39139;53.144;6.244;2023-03-05T04:37:13;2.30;99.90
51733;DHT22;39139;53.144;6.244;2023-03-05T04:39:38;2.20;99.90
51733;DHT22;39139;53.144;6.244;2023-03-05T04:42:04;2.20;99.90
51733;DHT22;39139;53.144;6.244;2023-03-05T04:44:30;2.10;99.90
51733;DHT22;39139;53.144;6.244;2023-03-05T04:46:56;2.10;99.90
51733;DHT22;39139;53.144;6.244;2023-03-05T04:49:21;2.00;99.90
51733;DHT22;39139;53.144;6.244;2023-03-05T04:51:47;2.00;99.90
51733;DHT22;39139;53.144;6.244;2023-03-05T04:54:12;2.60;99.90
51733;DHT22;39139;53.144;6.244;2023-03-05T04:56:38;2.00;99.90
51733;DHT22;39139;53.144;6.244;2023-03-05T04:59:04;2.00;99.90
51733;DHT22;39139;53.144;6.244;2023-03-05T05:01:29;2.00;99.90
51733;DHT22;39139;53.144;6.244;2023-03-05T05:03:55;2.00;99.90
51733;DHT22;39139;53.144;6.244;2023-03-05T05:06:21;1.90;99.90
51733;DHT22;39139;53.144;6.244;2023-03-05T05:08:46;2.00;99.90
51733;DHT22;39139;53.144;6.244;2023-03-05T05:11:13;2.00;99.90
51733;DHT22;39139;53.144;6.244;2023-03-05T05:13:38;2.10;99.90
51733;DHT22;39139;53.144;6.244;2023-03-05T05:16:07;2.10;99.90
51733;DHT22;39139;53.144;6.244;2023-03-05T05:18:34;2.10;99.90
51733;DHT22;39139;53.144;6.244;2023-03-05T05:21:00;2.20;99.90
51733;DHT22;39139;53.144;6.244;2023-03-05T05:23:26;2.30;99.90
51733;DHT22;39139;53.144;6.244;2023-03-05T05:25:59;2.30;99.90
51733;DHT22;39139;53.144;6.244;2023-03-05T05:28:26;2.20;99.90
51733;DHT22;39139;53.144;6.244;2023-03-05T05:30:52;2.20;99.90
51733;DHT22;39139;53.144;6.244;2023-03-05T05:33:19;2.10;99.90
51733;DHT22;39139;53.144;6.244;2023-03-05T05:35:45;2.10;99.90
51733;DHT22;39139;53.144;6.244;2023-03-05T05:38:11;2.00;99.90
51733;DHT22;39139;53.144;6.244;2023-03-05T05:40:36;2.00;99.90
51733;DHT22;39139;53.144;6.244;2023-03-05T05:43:02;1.90;99.90
51733;DHT22;39139;53.144;6.244;2023-03-05T05:45:28;1.90;99.90
51733;DHT22;39139;53.144;6.244;2023-03-05T05:47:53;1.80;99.90
51733;DHT22;39139;53.144;6.244;2023-03-05T05:50:19;1.70;99.90
51733;DHT22;39139;53.144;6.244;2023-03-05T05:52:45;1.70;99.90
51733;DHT22;39139;53.144;6.244;2023-03-05T05:55:11;1.70;99.90
51733;DHT22;39139;53.144;6.244;2023-03-05T05:57:37;1.60;99.90
51733;DHT22;39139;53.144;6.244;2023-03-05T06:00:05;1.50;99.90
51733;DHT22;39139;53.144;6.244;2023-03-05T06:02:31;1.50;99.90
51733;DHT22;39139;53.144;6.244;2023-03-05T06:04:57;1.50;99.90
51733;DHT22;39139;53.144;6.244;2023-03-05T06:07:22;1.40;99.90
51733;DHT22;39139;53.144;6.244;2023-03-05T06:09:48;1.40;99.90
51733;DHT22;39139;53.144;6.244;2023-03-05T06:12:14;1.40;99.90
51733;DHT22;39139;53.144;6.244;2023-03-05T06:14:39;1.40;99.90
51733;DHT22;39139;53.144;6.244;2023-03-05T06:17:05;1.40;99.90
51733;DHT22;39139;53.144;6.244;2023-03-05T06:19:31;1.40;99.90
51733;DHT22;39139;53.144;6.244;2023-03-05T06:21:56;1.40;99.90
51733;DHT22;39139;53.144;6.244;2023-03-05T06:24:22;1.40;99.90
51733;DHT22;39139;53.144;6.244;2023-03-05T06:26:48;1.40;99.90
51733;DHT22;39139;53.144;6.244;2023-03-05T06:29:14;1.40;99.90
51733;DHT22;39139;53.144;6.244;2023-03-05T06:31:40;1.30;99.90
51733;DHT22;39139;53.144;6.244;2023-03-05T06:34:05;1.30;99.90
51733;DHT22;39139;53.144;6.244;2023-03-05T06:36:31;1.40;99.90
51733;DHT22;39139;53.144;6.244;2023-03-05T06:38:57;1.30;99.90
51733;DHT22;39139;53.144;6.244;2023-03-05T06:41:28;1.30;99.90
51733;DHT22;39139;53.144;6.244;2023-03-05T06:43:55;1.90;99.90
51733;DHT22;39139;53.144;6.244;2023-03-05T06:46:23;1.30;99.90
51733;DHT22;39139;53.144;6.244;2023-03-05T06:48:50;1.30;99.90
51733;DHT22;39139;53.144;6.244;2023-03-05T06:51:21;1.30;99.90
51733;DHT22;39139;53.144;6.244;2023-03-05T06:53:48;1.30;99.90
51733;DHT22;39139;53.144;6.244;2023-03-05T06:56:14;1.30;99.90
51733;DHT22;39139;53.144;6.244;2023-03-05T06:58:41;1.40;99.90
51733;DHT22;39139;53.144;6.244;2023-03-05T07:01:08;1.50;99.90
51733;DHT22;39139;53.144;6.244;2023-03-05T07:03:34;1.40;99.90
51733;DHT22;39139;53.144;6.244;2023-03-05T07:06:12;1.40;99.90
51733;DHT22;39139;53.144;6.244;2023-03-05T07:08:38;1.50;99.90
51733;DHT22;39139;53.144;6.244;2023-03-05T07:11:12;1.60;99.90
51733;DHT22;39139;53.144;6.244;2023-03-05T07:13:37;1.70;99.90
51733;DHT22;39139;53.144;6.244;2023-03-05T07:16:05;1.80;99.90
51733;DHT22;39139;53.144;6.244;2023-03-05T07:18:30;1.90;99.90
51733;DHT22;39139;53.144;6.244;2023-03-05T07:21:01;2.00;99.90
51733;DHT22;39139;53.144;6.244;2023-03-05T07:23:27;2.00;99.90
51733;DHT22;39139;53.144;6.244;2023-03-05T07:25:53;2.10;99.90
51733;DHT22;39139;53.144;6.244;2023-03-05T07:28:18;2.20;99.90
51733;DHT22;39139;53.144;6.244;2023-03-05T07:30:44;2.30;99.90
51733;DHT22;39139;53.144;6.244;2023-03-05T07:33:10;2.30;99.90
51733;DHT22;39139;53.144;6.244;2023-03-05T07:35:39;2.40;99.90
51733;DHT22;39139;53.144;6.244;2023-03-05T07:38:05;2.50;99.90
51733;DHT22;39139;53.144;6.244;2023-03-05T07:40:31;2.50;99.90
51733;DHT22;39139;53.144;6.244;2023-03-05T07:42:56;2.60;99.90
51733;DHT22;39139;53.144;6.244;2023-03-05T07:45:22;2.60;99.90
51733;DHT22;39139;53.144;6.244;2023-03-05T07:47:47;2.80;99.90
51733;DHT22;39139;53.144;6.244;2023-03-05T07:50:13;2.60;99.90
51733;DHT22;39139;53.144;6.244;2023-03-05T07:52:39;2.70;99.90
51733;DHT22;39139;53.144;6.244;2023-03-05T07:55:04;2.70;99.90
51733;DHT22;39139;53.144;6.244;2023-03-05T07:57:30;2.70;99.90
51733;DHT22;39139;53.144;6.244;2023-03-05T07:59:56;2.70;99.90
51733;DHT22;39139;53.144;6.244;2023-03-05T08:02:22;2.80;99.90
51733;DHT22;39139;53.144;6.244;2023-03-05T08:04:47;2.80;99.90
51733;DHT22;39139;53.144;6.244;2023-03-05T08:07:14;2.90;99.90
51733;DHT22;39139;53.144;6.244;2023-03-05T08:09:40;3.00;99.90
51733;DHT22;39139;53.144;6.244;2023-03-05T08:12:07;3.20;99.90
51733;DHT22;39139;53.144;6.244;2023-03-05T08:14:34;3.30;99.90
51733;DHT22;39139;53.144;6.244;2023-03-05T08:16:59;3.40;99.90
51733;DHT22;39139;53.144;6.244;2023-03-05T08:19:25;3.50;99.90
51733;DHT22;39139;53.144;6.244;2023-03-05T08:21:51;3.70;99.90
51733;DHT22;39139;53.144;6.244;2023-03-05T08:24:16;3.90;99.90
51733;DHT22;39139;53.144;6.244;2023-03-05T08:26:42;4.00;99.90
51733;DHT22;39139;53.144;6.244;2023-03-05T08:29:09;4.10;99.90
51733;DHT22;39139;53.144;6.244;2023-03-05T08:31:35;4.30;99.90
51733;DHT22;39139;53.144;6.244;2023-03-05T08:34:01;4.40;99.90
51733;DHT22;39139;53.144;6.244;2023-03-05T08:36:28;4.60;99.90
51733;DHT22;39139;53.144;6.244;2023-03-05T08:38:54;4.80;99.90
51733;DHT22;39139;53.144;6.244;2023-03-05T08:41:20;5.00;99.90
51733;DHT22;39139;53.144;6.244;2023-03-05T08:43:46;5.30;99.90
51733;DHT22;39139;53.144;6.244;2023-03-05T08:46:12;5.70;99.90
51733;DHT22;39139;53.144;6.244;2023-03-05T08:48:38;6.00;99.90
51733;DHT22;39139;53.144;6.244;2023-03-05T08:51:06;6.20;99.90
51733;DHT22;39139;53.144;6.244;2023-03-05T08:53:32;6.50;99.90
51733;DHT22;39139;53.144;6.244;2023-03-05T08:55:58;6.70;99.90
51733;DHT22;39139;53.144;6.244;2023-03-05T08:58:24;6.90;99.90
51733;DHT22;39139;53.144;6.244;2023-03-05T09:00:50;7.20;99.90
51733;DHT22;39139;53.144;6.244;2023-03-05T09:03:16;7.30;99.90
51733;DHT22;39139;53.144;6.244;2023-03-05T09:05:42;7.50;99.90
51733;DHT22;39139;53.144;6.244;2023-03-05T09:08:08;7.70;99.90
51733;DHT22;39139;53.144;6.244;2023-03-05T09:10:34;8.10;99.90
51733;DHT22;39139;53.144;6.244;2023-03-05T09:13:00;8.10;99.90
51733;DHT22;39139;53.144;6.244;2023-03-05T09:15:26;8.30;99.90
51733;DHT22;39139;53.144;6.244;2023-03-05T09:17:51;8.30;99.90
51733;DHT22;39139;53.144;6.244;2023-03-05T09:20:17;8.40;99.90
51733;DHT22;39139;53.144;6.244;2023-03-05T09:22:43;8.40;99.90
51733;DHT22;39139;53.144;6.244;2023-03-05T09:25:10;8.40;99.90
51733;DHT22;39139;53.144;6.244;2023-03-05T09:27:37;8.60;99.90
51733;DHT22;39139;53.144;6.244;2023-03-05T09:30:04;8.80;99.90
51733;DHT22;39139;53.144;6.244;2023-03-05T09:32:30;8.70;99.90
51733;DHT22;39139;53.144;6.244;2023-03-05T09:34:56;9.00;99.90
51733;DHT22;39139;53.144;6.244;2023-03-05T09:37:22;9.00;99.90
51733;DHT22;39139;53.144;6.244;2023-03-05T09:39:47;8.90;99.90
51733;DHT22;39139;53.144;6.244;2023-03-05T09:45:27;8.90;99.90
51733;DHT22;39139;53.144;6.244;2023-03-05T09:48:05;8.60;99.90
51733;DHT22;39139;53.144;6.244;2023-03-05T09:51:01;8.20;99.90
51733;DHT22;39139;53.144;6.244;2023-03-05T09:54:20;8.00;99.90
51733;DHT22;39139;53.144;6.244;2023-03-05T09:56:25;7.50;99.90
51733;DHT22;39139;53.144;6.244;2023-03-05T09:58:55;7.20;99.90
51733;DHT22;39139;53.144;6.244;2023-03-05T10:01:28;7.00;99.90
51733;DHT22;39139;53.144;6.244;2023-03-05T10:04:15;7.00;99.90
51733;DHT22;39139;53.144;6.244;2023-03-05T10:06:57;7.10;99.90
51733;DHT22;39139;53.144;6.244;2023-03-05T10:12:34;7.60;99.90
51733;DHT22;39139;53.144;6.244;2023-03-05T10:15:10;7.80;99.90
51733;DHT22;39139;53.144;6.244;2023-03-05T10:44:57;10.10;99.90
51733;DHT22;39139;53.144;6.244;2023-03-05T10:47:48;10.00;99.90
51733;DHT22;39139;53.144;6.244;2023-03-05T10:52:46;10.50;99.90
51733;DHT22;39139;53.144;6.244;2023-03-05T10:55:21;10.70;99.90
51733;DHT22;39139;53.144;6.244;2023-03-05T10:57:48;10.70;99.90
51733;DHT22;39139;53.144;6.244;2023-03-05T11:00:23;10.40;99.90
51733;DHT22;39139;53.144;6.244;2023-03-05T11:03:01;10.20;99.90
51733;DHT22;39139;53.144;6.244;2023-03-05T11:05:41;9.90;99.90
51733;DHT22;39139;53.144;6.244;2023-03-05T11:08:35;9.60;99.90
51733;DHT22;39139;53.144;6.244;2023-03-05T11:11:05;10.00;99.90
51733;DHT22;39139;53.144;6.244;2023-03-05T11:13:49;10.60;99.90
51733;DHT22;39139;53.144;6.244;2023-03-05T11:21:36;9.60;99.90
51733;DHT22;39139;53.144;6.244;2023-03-05T11:24:17;9.20;99.90
51733;DHT22;39139;53.144;6.244;2023-03-05T11:26:52;9.50;99.90
51733;DHT22;39139;53.144;6.244;2023-03-05T11:31:46;10.30;99.90
51733;DHT22;39139;53.144;6.244;2023-03-05T11:37:05;9.90;99.90
51733;DHT22;39139;53.144;6.244;2023-03-05T11:39:33;9.60;99.90
51733;DHT22;39139;53.144;6.244;2023-03-05T11:42:19;9.90;99.90
51733;DHT22;39139;53.144;6.244;2023-03-05T11:44:52;10.00;99.90
51733;DHT22;39139;53.144;6.244;2023-03-05T11:49:57;10.70;99.90
51733;DHT22;39139;53.144;6.244;2023-03-05T11:52:30;11.00;99.90
51733;DHT22;39139;53.144;6.244;2023-03-05T11:55:11;11.20;99.90
51733;DHT22;39139;53.144;6.244;2023-03-05T11:58:03;11.00;99.90
51733;DHT22;39139;53.144;6.244;2023-03-05T12:00:35;10.50;99.90
51733;DHT22;39139;53.144;6.244;2023-03-05T12:03:10;10.00;99.90
51733;DHT22;39139;53.144;6.244;2023-03-05T12:05:41;9.70;99.90
51733;DHT22;39139;53.144;6.244;2023-03-05T12:08:12;9.30;99.90
51733;DHT22;39139;53.144;6.244;2023-03-05T12:10:39;9.10;99.90
51733;DHT22;39139;53.144;6.244;2023-03-05T12:16:08;9.00;99.90
51733;DHT22;39139;53.144;6.244;2023-03-05T12:21:36;9.40;99.90
51733;DHT22;39139;53.144;6.244;2023-03-05T12:34:49;9.70;99.90
51733;DHT22;39139;53.144;6.244;2023-03-05T12:39:50;10.20;99.90
51733;DHT22;39139;53.144;6.244;2023-03-05T12:53:14;10.50;99.90
51733;DHT22;39139;53.144;6.244;2023-03-05T13:01:03;10.00;99.90
51733;DHT22;39139;53.144;6.244;2023-03-05T13:03:33;9.60;99.90
51733;DHT22;39139;53.144;6.244;2023-03-05T13:06:00;9.30;99.90
51733;DHT22;39139;53.144;6.244;2023-03-05T13:08:33;9.10;99.90
51733;DHT22;39139;53.144;6.244;2023-03-05T13:11:23;8.80;99.90
51733;DHT22;39139;53.144;6.244;2023-03-05T13:13:49;8.70;99.90
51733;DHT22;39139;53.144;6.244;2023-03-05T13:16:24;8.50;99.90
51733;DHT22;39139;53.144;6.244;2023-03-05T13:18:52;8.90;99.90
51733;DHT22;39139;53.144;6.244;2023-03-05T13:21:22;8.40;99.90
51733;DHT22;39139;53.144;6.244;2023-03-05T13:23:50;8.40;99.90
51733;DHT22;39139;53.144;6.244;2023-03-05T13:26:23;8.10;99.90
51733;DHT22;39139;53.144;6.244;2023-03-05T13:29:16;8.40;99.90
51733;DHT22;39139;53.144;6.244;2023-03-05T13:31:48;8.40;99.90
51733;DHT22;39139;53.144;6.244;2023-03-05T13:34:23;8.20;99.90
51733;DHT22;39139;53.144;6.244;2023-03-05T13:36:59;8.30;99.90
51733;DHT22;39139;53.144;6.244;2023-03-05T13:39:32;8.20;99.90
51733;DHT22;39139;53.144;6.244;2023-03-05T13:42:05;8.70;99.90
51733;DHT22;39139;53.144;6.244;2023-03-05T13:44:32;8.70;99.90
51733;DHT22;39139;53.144;6.244;2023-03-05T13:47:07;9.00;99.90
51733;DHT22;39139;53.144;6.244;2023-03-05T13:49:33;9.10;99.90
51733;DHT22;39139;53.144;6.244;2023-03-05T13:51:59;9.00;99.90
51733;DHT22;39139;53.144;6.244;2023-03-05T13:54:26;8.90;99.90
51733;DHT22;39139;53.144;6.244;2023-03-05T13:56:58;8.90;99.90
51733;DHT22;39139;53.144;6.244;2023-03-05T13:59:29;8.80;99.90
51733;DHT22;39139;53.144;6.244;2023-03-05T14:01:57;8.90;99.90
51733;DHT22;39139;53.144;6.244;2023-03-05T14:04:26;9.10;99.90
51733;DHT22;39139;53.144;6.244;2023-03-05T14:06:59;8.70;99.90
51733;DHT22;39139;53.144;6.244;2023-03-05T14:09:28;8.60;99.90
51733;DHT22;39139;53.144;6.244;2023-03-05T14:12:06;8.40;99.90
51733;DHT22;39139;53.144;6.244;2023-03-05T14:14:44;8.30;99.90
51733;DHT22;39139;53.144;6.244;2023-03-05T14:17:31;8.60;99.90
51733;DHT22;39139;53.144;6.244;2023-03-05T14:22:37;8.30;99.90
51733;DHT22;39139;53.144;6.244;2023-03-05T14:25:04;8.20;99.90
51733;DHT22;39139;53.144;6.244;2023-03-05T14:27:34;8.00;99.90
51733;DHT22;39139;53.144;6.244;2023-03-05T14:30:02;7.90;99.90
51733;DHT22;39139;53.144;6.244;2023-03-05T14:32:32;7.90;99.90
51733;DHT22;39139;53.144;6.244;2023-03-05T14:34:59;7.80;99.90
51733;DHT22;39139;53.144;6.244;2023-03-05T14:37:39;7.70;99.90
51733;DHT22;39139;53.144;6.244;2023-03-05T14:42:55;7.60;99.90
51733;DHT22;39139;53.144;6.244;2023-03-05T14:47:52;7.20;99.90
51733;DHT22;39139;53.144;6.244;2023-03-05T14:50:24;7.10;99.90
51733;DHT22;39139;53.144;6.244;2023-03-05T14:52:53;7.10;99.90
51733;DHT22;39139;53.144;6.244;2023-03-05T14:55:22;7.10;99.90
51733;DHT22;39139;53.144;6.244;2023-03-05T14:57:49;7.10;99.90
51733;DHT22;39139;53.144;6.244;2023-03-05T15:00:20;7.10;99.90
51733;DHT22;39139;53.144;6.244;2023-03-05T15:02:46;7.10;99.90
51733;DHT22;39139;53.144;6.244;2023-03-05T15:05:13;7.10;99.90
51733;DHT22;39139;53.144;6.244;2023-03-05T15:07:38;7.20;99.90
51733;DHT22;39139;53.144;6.244;2023-03-05T15:10:05;7.30;99.90
51733;DHT22;39139;53.144;6.244;2023-03-05T15:12:32;7.40;99.90
51733;DHT22;39139;53.144;6.244;2023-03-05T15:14:57;7.40;99.90
51733;DHT22;39139;53.144;6.244;2023-03-05T15:17:34;7.30;99.90
51733;DHT22;39139;53.144;6.244;2023-03-05T15:20:02;7.20;99.90
51733;DHT22;39139;53.144;6.244;2023-03-05T15:22:32;7.00;99.90
51733;DHT22;39139;53.144;6.244;2023-03-05T15:24:58;7.00;99.90
51733;DHT22;39139;53.144;6.244;2023-03-05T15:27:23;7.10;99.90
51733;DHT22;39139;53.144;6.244;2023-03-05T15:29:49;7.10;99.90
51733;DHT22;39139;53.144;6.244;2023-03-05T15:32:14;7.10;99.90
51733;DHT22;39139;53.144;6.244;2023-03-05T15:34:40;7.10;99.90
51733;DHT22;39139;53.144;6.244;2023-03-05T15:37:06;7.20;99.90
51733;DHT22;39139;53.144;6.244;2023-03-05T15:39:32;7.10;99.90
51733;DHT22;39139;53.144;6.244;2023-03-05T15:41:57;6.90;99.90
51733;DHT22;39139;53.144;6.244;2023-03-05T15:44:23;7.00;99.90
51733;DHT22;39139;53.144;6.244;2023-03-05T15:46:49;7.00;99.90
51733;DHT22;39139;53.144;6.244;2023-03-05T15:49:15;7.10;99.90
51733;DHT22;39139;53.144;6.244;2023-03-05T15:51:41;7.50;99.90
51733;DHT22;39139;53.144;6.244;2023-03-05T15:54:06;7.00;99.90
51733;DHT22;39139;53.144;6.244;2023-03-05T15:56:32;6.80;99.90
51733;DHT22;39139;53.144;6.244;2023-03-05T15:58:57;6.70;99.90
51733;DHT22;39139;53.144;6.244;2023-03-05T16:01:23;6.50;99.90
51733;DHT22;39139;53.144;6.244;2023-03-05T16:03:49;6.40;99.90
51733;DHT22;39139;53.144;6.244;2023-03-05T16:06:16;6.30;99.90
51733;DHT22;39139;53.144;6.244;2023-03-05T16:08:45;6.20;99.90
51733;DHT22;39139;53.144;6.244;2023-03-05T16:11:12;6.10;99.90
51733;DHT22;39139;53.144;6.244;2023-03-05T16:13:38;6.20;99.90
51733;DHT22;39139;53.144;6.244;2023-03-05T16:16:06;6.30;99.90
51733;DHT22;39139;53.144;6.244;2023-03-05T16:18:33;6.40;99.90
51733;DHT22;39139;53.144;6.244;2023-03-05T16:21:01;6.40;99.90
51733;DHT22;39139;53.144;6.244;2023-03-05T16:23:26;6.40;99.90
51733;DHT22;39139;53.144;6.244;2023-03-05T16:25:52;6.40;99.90
51733;DHT22;39139;53.144;6.244;2023-03-05T16:28:18;6.50;99.90
51733;DHT22;39139;53.144;6.244;2023-03-05T16:30:44;6.30;99.90
51733;DHT22;39139;53.144;6.244;2023-03-05T16:33:10;7.50;99.90
51733;DHT22;39139;53.144;6.244;2023-03-05T16:35:36;6.20;99.90
51733;DHT22;39139;53.144;6.244;2023-03-05T16:38:02;6.20;99.90
51733;DHT22;39139;53.144;6.244;2023-03-05T16:40:28;6.10;99.90
51733;DHT22;39139;53.144;6.244;2023-03-05T16:42:53;5.90;99.90
51733;DHT22;39139;53.144;6.244;2023-03-05T16:45:19;5.50;99.90
51733;DHT22;39139;53.144;6.244;2023-03-05T16:47:45;5.60;99.90
51733;DHT22;39139;53.144;6.244;2023-03-05T16:50:11;5.00;99.90
51733;DHT22;39139;53.144;6.244;2023-03-05T16:52:37;4.90;99.90
51733;DHT22;39139;53.144;6.244;2023-03-05T16:55:04;4.70;99.90
51733;DHT22;39139;53.144;6.244;2023-03-05T16:57:29;4.70;99.90
51733;DHT22;39139;53.144;6.244;2023-03-05T16:59:56;4.60;99.90
51733;DHT22;39139;53.144;6.244;2023-03-05T17:02:22;4.60;99.90
51733;DHT22;39139;53.144;6.244;2023-03-05T17:04:48;4.60;99.90
51733;DHT22;39139;53.144;6.244;2023-03-05T17:07:15;4.50;99.90
51733;DHT22;39139;53.144;6.244;2023-03-05T17:09:41;4.40;99.90
51733;DHT22;39139;53.144;6.244;2023-03-05T17:12:08;4.30;99.90
51733;DHT22;39139;53.144;6.244;2023-03-05T17:14:34;4.20;99.90
51733;DHT22;39139;53.144;6.244;2023-03-05T17:17:00;4.20;99.90
51733;DHT22;39139;53.144;6.244;2023-03-05T17:19:25;4.20;99.90
51733;DHT22;39139;53.144;6.244;2023-03-05T17:21:51;4.10;99.90
51733;DHT22;39139;53.144;6.244;2023-03-05T17:24:18;4.00;99.90
51733;DHT22;39139;53.144;6.244;2023-03-05T17:26:44;3.90;99.90
51733;DHT22;39139;53.144;6.244;2023-03-05T17:29:11;4.10;99.90